sensor_id;sensor_type;location;lat;lon;timestamp;P1;durP1;ratioP1;P2;durP2;ratioP2
13849;SDS011;6995;52.618;13.488;2024-01-06T00:00:10;52.50;;;44.87;;
13849;SDS011;6995;52.618;13.488;2024-01-06T00:02:36;47.73;;;42.33;;
13849;SDS011;6995;52.618;13.488;2024-01-06T00:05:05;49.27;;;42.00;;
13849;SDS011;6995;52.618;13.488;2024-01-06T00:07:30;51.10;;;43.13;;
13849;SDS011;6995;52.618;13.488;2024-01-06T00:09:56;49.57;;;42.57;;
13849;SDS011;6995;52.618;13.488;2024-01-06T00:12:22;55.27;;;46.00;;
13849;SDS011;6995;52.618;13.488;2024-01-06T00:14:47;53.27;;;46.87;;
13849;SDS011;6995;52.618;13.488;2024-01-06T00:17:14;51.10;;;45.80;;
13849;SDS011;6995;52.618;13.488;2024-01-06T00:19:40;58.40;;;48.63;;
13849;SDS011;6995;52.618;13.488;2024-01-06T00:22:06;53.70;;;47.97;;
13849;SDS011;6995;52.618;13.488;2024-01-06T00:24:31;49.17;;;42.53;;
13849;SDS011;6995;52.618;13.488;2024-01-06T00:26:57;47.53;;;41.50;;
13849;SDS011;6995;52.618;13.488;2024-01-06T00:29:23;48.30;;;41.63;;
13849;SDS011;6995;52.618;13.488;2024-01-06T00:31:48;53.77;;;44.97;;
13849;SDS011;6995;52.618;13.488;2024-01-06T00:34:14;52.77;;;47.40;;
13849;SDS011;6995;52.618;13.488;2024-01-06T00:36:42;48.37;;;43.27;;
13849;SDS011;6995;52.618;13.488;2024-01-06T00:39:07;49.37;;;43.87;;
13849;SDS011;6995;52.618;13.488;2024-01-06T00:41:33;52.30;;;44.03;;
13849;SDS011;6995;52.618;13.488;2024-01-06T00:43:59;48.77;;;43.43;;
13849;SDS011;6995;52.618;13.488;2024-01-06T00:46:24;49.10;;;43.83;;
13849;SDS011;6995;52.618;13.488;2024-01-06T00:48:50;49.73;;;44.73;;
13849;SDS011;6995;52.618;13.488;2024-01-06T00:51:16;50.97;;;45.43;;
13849;SDS011;6995;52.618;13.488;2024-01-06T00:53:41;46.67;;;41.53;;
13849;SDS011;6995;52.618;13.488;2024-01-06T00:56:07;50.33;;;44.97;;
13849;SDS011;6995;52.618;13.488;2024-01-06T00:58:32;53.20;;;42.70;;
13849;SDS011;6995;52.618;13.488;2024-01-06T01:00:58;52.47;;;44.87;;
13849;SDS011;6995;52.618;13.488;2024-01-06T01:03:24;47.93;;;42.93;;
13849;SDS011;6995;52.618;13.488;2024-01-06T01:05:49;51.03;;;45.67;;
13849;SDS011;6995;52.618;13.488;2024-01-06T01:08:15;50.73;;;45.20;;
13849;SDS011;6995;52.618;13.488;2024-01-06T01:10:41;48.50;;;42.87;;
13849;SDS011;6995;52.618;13.488;2024-01-06T01:13:06;50.13;;;44.93;;
13849;SDS011;6995;52.618;13.488;2024-01-06T01:15:32;50.67;;;45.00;;
13849;SDS011;6995;52.618;13.488;2024-01-06T01:17:57;48.97;;;44.27;;
13849;SDS011;6995;52.618;13.488;2024-01-06T01:20:23;52.60;;;45.93;;
13849;SDS011;6995;52.618;13.488;2024-01-06T01:22:49;53.23;;;48.33;;
13849;SDS011;6995;52.618;13.488;2024-01-06T01:25:14;47.90;;;43.03;;
13849;SDS011;6995;52.618;13.488;2024-01-06T01:27:40;48.57;;;43.37;;
13849;SDS011;6995;52.618;13.488;2024-01-06T01:30:06;52.60;;;42.03;;
13849;SDS011;6995;52.618;13.488;2024-01-06T01:32:32;50.03;;;43.77;;
13849;SDS011;6995;52.618;13.488;2024-01-06T01:34:57;48.43;;;43.53;;
13849;SDS011;6995;52.618;13.488;2024-01-06T01:37:23;48.50;;;43.53;;
13849;SDS011;6995;52.618;13.488;2024-01-06T01:39:48;53.80;;;48.07;;
13849;SDS011;6995;52.618;13.488;2024-01-06T01:42:14;50.50;;;45.43;;
13849;SDS011;6995;52.618;13.488;2024-01-06T01:44:40;48.30;;;43.07;;
13849;SDS011;6995;52.618;13.488;2024-01-06T01:47:05;49.97;;;43.97;;
13849;SDS011;6995;52.618;13.488;2024-01-06T01:49:31;47.63;;;42.43;;
13849;SDS011;6995;52.618;13.488;2024-01-06T01:51:57;53.70;;;45.87;;
13849;SDS011;6995;52.618;13.488;2024-01-06T01:54:24;48.70;;;43.37;;
13849;SDS011;6995;52.618;13.488;2024-01-06T01:56:50;54.27;;;48.60;;
13849;SDS011;6995;52.618;13.488;2024-01-06T01:59:18;50.47;;;44.37;;
13849;SDS011;6995;52.618;13.488;2024-01-06T02:01:44;47.33;;;41.20;;
13849;SDS011;6995;52.618;13.488;2024-01-06T02:04:11;49.40;;;44.07;;
13849;SDS011;6995;52.618;13.488;2024-01-06T02:06:38;50.70;;;44.63;;
13849;SDS011;6995;52.618;13.488;2024-01-06T02:09:03;50.03;;;45.03;;
13849;SDS011;6995;52.618;13.488;2024-01-06T02:11:30;54.97;;;48.13;;
13849;SDS011;6995;52.618;13.488;2024-01-06T02:13:56;51.33;;;45.93;;
13849;SDS011;6995;52.618;13.488;2024-01-06T02:16:21;50.27;;;44.90;;
13849;SDS011;6995;52.618;13.488;2024-01-06T02:18:47;51.80;;;46.30;;
13849;SDS011;6995;52.618;13.488;2024-01-06T02:21:13;51.87;;;46.30;;
13849;SDS011;6995;52.618;13.488;2024-01-06T02:23:40;51.53;;;45.43;;
13849;SDS011;6995;52.618;13.488;2024-01-06T02:26:06;48.90;;;43.60;;
13849;SDS011;6995;52.618;13.488;2024-01-06T02:28:32;50.67;;;45.33;;
13849;SDS011;6995;52.618;13.488;2024-01-06T02:30:57;53.37;;;47.53;;
13849;SDS011;6995;52.618;13.488;2024-01-06T02:33:23;49.60;;;44.20;;
13849;SDS011;6995;52.618;13.488;2024-01-06T02:35:49;48.73;;;43.50;;
13849;SDS011;6995;52.618;13.488;2024-01-06T02:38:15;50.87;;;43.87;;
13849;SDS011;6995;52.618;13.488;2024-01-06T02:40:40;53.50;;;47.57;;
13849;SDS011;6995;52.618;13.488;2024-01-06T02:43:07;51.80;;;43.27;;
13849;SDS011;6995;52.618;13.488;2024-01-06T02:45:33;50.00;;;44.60;;
13849;SDS011;6995;52.618;13.488;2024-01-06T02:47:59;52.63;;;45.70;;
13849;SDS011;6995;52.618;13.488;2024-01-06T02:50:25;49.93;;;44.53;;
13849;SDS011;6995;52.618;13.488;2024-01-06T02:52:50;52.00;;;46.40;;
13849;SDS011;6995;52.618;13.488;2024-01-06T02:55:16;56.00;;;44.97;;
13849;SDS011;6995;52.618;13.488;2024-01-06T02:57:42;50.23;;;44.27;;
13849;SDS011;6995;52.618;13.488;2024-01-06T03:00:08;53.97;;;46.63;;
13849;SDS011;6995;52.618;13.488;2024-01-06T03:02:34;50.47;;;45.17;;
13849;SDS011;6995;52.618;13.488;2024-01-06T03:05:01;50.60;;;42.80;;
13849;SDS011;6995;52.618;13.488;2024-01-06T03:07:27;53.80;;;45.33;;
13849;SDS011;6995;52.618;13.488;2024-01-06T03:09:53;53.43;;;47.27;;
13849;SDS011;6995;52.618;13.488;2024-01-06T03:12:18;48.40;;;42.83;;
13849;SDS011;6995;52.618;13.488;2024-01-06T03:14:44;50.27;;;45.07;;
13849;SDS011;6995;52.618;13.488;2024-01-06T03:17:10;53.00;;;45.43;;
13849;SDS011;6995;52.618;13.488;2024-01-06T03:19:36;51.10;;;43.67;;
13849;SDS011;6995;52.618;13.488;2024-01-06T03:22:01;51.53;;;45.27;;
13849;SDS011;6995;52.618;13.488;2024-01-06T03:24:27;53.67;;;47.93;;
13849;SDS011;6995;52.618;13.488;2024-01-06T03:26:53;55.47;;;49.77;;
13849;SDS011;6995;52.618;13.488;2024-01-06T03:29:18;50.80;;;45.30;;
13849;SDS011;6995;52.618;13.488;2024-01-06T03:31:44;54.40;;;47.20;;
13849;SDS011;6995;52.618;13.488;2024-01-06T03:34:10;52.10;;;44.77;;
13849;SDS011;6995;52.618;13.488;2024-01-06T03:36:40;47.20;;;42.07;;
13849;SDS011;6995;52.618;13.488;2024-01-06T03:39:06;50.10;;;44.37;;
13849;SDS011;6995;52.618;13.488;2024-01-06T03:41:32;49.57;;;42.80;;
13849;SDS011;6995;52.618;13.488;2024-01-06T03:43:58;56.07;;;45.77;;
13849;SDS011;6995;52.618;13.488;2024-01-06T03:46:24;48.40;;;40.80;;
13849;SDS011;6995;52.618;13.488;2024-01-06T03:48:49;49.57;;;44.17;;
13849;SDS011;6995;52.618;13.488;2024-01-06T03:51:15;50.60;;;45.10;;
13849;SDS011;6995;52.618;13.488;2024-01-06T03:53:41;52.93;;;42.70;;
13849;SDS011;6995;52.618;13.488;2024-01-06T03:56:07;50.43;;;45.23;;
13849;SDS011;6995;52.618;13.488;2024-01-06T03:58:35;54.10;;;44.73;;
13849;SDS011;6995;52.618;13.488;2024-01-06T04:01:01;51.40;;;45.00;;
13849;SDS011;6995;52.618;13.488;2024-01-06T04:03:26;51.90;;;44.70;;
13849;SDS011;6995;52.618;13.488;2024-01-06T04:05:52;51.00;;;43.07;;
13849;SDS011;6995;52.618;13.488;2024-01-06T04:08:18;52.47;;;46.87;;
13849;SDS011;6995;52.618;13.488;2024-01-06T04:10:43;56.77;;;49.07;;
13849;SDS011;6995;52.618;13.488;2024-01-06T04:13:12;52.33;;;46.93;;
13849;SDS011;6995;52.618;13.488;2024-01-06T04:15:40;55.10;;;48.77;;
13849;SDS011;6995;52.618;13.488;2024-01-06T04:18:06;50.17;;;44.63;;
13849;SDS011;6995;52.618;13.488;2024-01-06T04:20:32;55.40;;;49.57;;
13849;SDS011;6995;52.618;13.488;2024-01-06T04:22:58;56.60;;;46.30;;
13849;SDS011;6995;52.618;13.488;2024-01-06T04:25:24;54.80;;;45.87;;
13849;SDS011;6995;52.618;13.488;2024-01-06T04:27:50;57.50;;;45.37;;
13849;SDS011;6995;52.618;13.488;2024-01-06T04:30:15;58.43;;;48.40;;
13849;SDS011;6995;52.618;13.488;2024-01-06T04:32:42;55.07;;;46.57;;
13849;SDS011;6995;52.618;13.488;2024-01-06T04:35:08;53.30;;;47.50;;
13849;SDS011;6995;52.618;13.488;2024-01-06T04:37:34;58.30;;;44.70;;
13849;SDS011;6995;52.618;13.488;2024-01-06T04:40:02;52.27;;;46.70;;
13849;SDS011;6995;52.618;13.488;2024-01-06T04:42:29;55.77;;;47.63;;
13849;SDS011;6995;52.618;13.488;2024-01-06T04:44:54;58.50;;;48.77;;
13849;SDS011;6995;52.618;13.488;2024-01-06T04:47:23;59.10;;;49.20;;
13849;SDS011;6995;52.618;13.488;2024-01-06T04:49:50;50.60;;;43.93;;
13849;SDS011;6995;52.618;13.488;2024-01-06T04:52:15;48.53;;;42.93;;
13849;SDS011;6995;52.618;13.488;2024-01-06T04:54:44;52.47;;;46.70;;
13849;SDS011;6995;52.618;13.488;2024-01-06T04:57:09;51.00;;;45.17;;
13849;SDS011;6995;52.618;13.488;2024-01-06T04:59:35;52.90;;;47.40;;
13849;SDS011;6995;52.618;13.488;2024-01-06T05:02:01;57.13;;;49.23;;
13849;SDS011;6995;52.618;13.488;2024-01-06T05:04:27;54.47;;;43.27;;
13849;SDS011;6995;52.618;13.488;2024-01-06T05:06:53;56.37;;;47.00;;
13849;SDS011;6995;52.618;13.488;2024-01-06T05:09:19;57.63;;;47.63;;
13849;SDS011;6995;52.618;13.488;2024-01-06T05:11:45;51.47;;;44.03;;
13849;SDS011;6995;52.618;13.488;2024-01-06T05:14:11;51.40;;;44.17;;
13849;SDS011;6995;52.618;13.488;2024-01-06T05:16:37;56.47;;;47.27;;
13849;SDS011;6995;52.618;13.488;2024-01-06T05:19:03;57.57;;;50.87;;
13849;SDS011;6995;52.618;13.488;2024-01-06T05:21:29;57.00;;;44.70;;
13849;SDS011;6995;52.618;13.488;2024-01-06T05:23:55;58.47;;;52.27;;
13849;SDS011;6995;52.618;13.488;2024-01-06T05:26:21;59.67;;;45.07;;
13849;SDS011;6995;52.618;13.488;2024-01-06T05:28:46;57.40;;;46.50;;
13849;SDS011;6995;52.618;13.488;2024-01-06T05:31:12;62.27;;;47.63;;
13849;SDS011;6995;52.618;13.488;2024-01-06T05:33:38;59.47;;;44.67;;
13849;SDS011;6995;52.618;13.488;2024-01-06T05:36:03;60.93;;;44.87;;
13849;SDS011;6995;52.618;13.488;2024-01-06T05:38:29;54.60;;;45.73;;
13849;SDS011;6995;52.618;13.488;2024-01-06T05:40:55;52.70;;;46.97;;
13849;SDS011;6995;52.618;13.488;2024-01-06T05:43:21;57.20;;;46.37;;
13849;SDS011;6995;52.618;13.488;2024-01-06T05:45:46;55.60;;;43.97;;
13849;SDS011;6995;52.618;13.488;2024-01-06T05:48:12;59.73;;;50.30;;
13849;SDS011;6995;52.618;13.488;2024-01-06T05:50:38;56.80;;;42.53;;
13849;SDS011;6995;52.618;13.488;2024-01-06T05:53:07;53.33;;;44.90;;
13849;SDS011;6995;52.618;13.488;2024-01-06T05:55:33;56.23;;;48.50;;
13849;SDS011;6995;52.618;13.488;2024-01-06T05:57:59;59.40;;;43.50;;
13849;SDS011;6995;52.618;13.488;2024-01-06T06:00:25;55.30;;;45.83;;
13849;SDS011;6995;52.618;13.488;2024-01-06T06:02:51;56.57;;;44.73;;
13849;SDS011;6995;52.618;13.488;2024-01-06T06:05:17;54.43;;;48.63;;
13849;SDS011;6995;52.618;13.488;2024-01-06T06:07:42;58.97;;;44.60;;
13849;SDS011;6995;52.618;13.488;2024-01-06T06:10:09;54.50;;;45.20;;
13849;SDS011;6995;52.618;13.488;2024-01-06T06:12:36;59.47;;;46.87;;
13849;SDS011;6995;52.618;13.488;2024-01-06T06:15:02;53.60;;;44.17;;
13849;SDS011;6995;52.618;13.488;2024-01-06T06:17:32;50.23;;;43.90;;
13849;SDS011;6995;52.618;13.488;2024-01-06T06:19:58;49.50;;;43.93;;
13849;SDS011;6995;52.618;13.488;2024-01-06T06:22:25;56.30;;;44.50;;
13849;SDS011;6995;52.618;13.488;2024-01-06T06:25:00;59.20;;;44.70;;
13849;SDS011;6995;52.618;13.488;2024-01-06T06:27:25;50.80;;;43.63;;
13849;SDS011;6995;52.618;13.488;2024-01-06T06:29:52;61.47;;;45.53;;
13849;SDS011;6995;52.618;13.488;2024-01-06T06:32:18;51.47;;;42.57;;
13849;SDS011;6995;52.618;13.488;2024-01-06T06:34:43;58.30;;;46.37;;
13849;SDS011;6995;52.618;13.488;2024-01-06T06:37:09;54.43;;;45.13;;
13849;SDS011;6995;52.618;13.488;2024-01-06T06:39:35;56.80;;;46.17;;
13849;SDS011;6995;52.618;13.488;2024-01-06T06:42:01;57.00;;;43.13;;
13849;SDS011;6995;52.618;13.488;2024-01-06T06:44:27;51.13;;;41.73;;
13849;SDS011;6995;52.618;13.488;2024-01-06T06:46:54;57.37;;;46.07;;
13849;SDS011;6995;52.618;13.488;2024-01-06T06:49:20;64.50;;;45.17;;
13849;SDS011;6995;52.618;13.488;2024-01-06T06:51:46;54.20;;;48.47;;
13849;SDS011;6995;52.618;13.488;2024-01-06T06:54:13;58.90;;;44.70;;
13849;SDS011;6995;52.618;13.488;2024-01-06T06:56:41;57.67;;;43.83;;
13849;SDS011;6995;52.618;13.488;2024-01-06T06:59:07;57.27;;;46.37;;
13849;SDS011;6995;52.618;13.488;2024-01-06T07:01:32;51.53;;;44.97;;
13849;SDS011;6995;52.618;13.488;2024-01-06T07:03:59;59.00;;;47.20;;
13849;SDS011;6995;52.618;13.488;2024-01-06T07:06:24;57.93;;;49.50;;
13849;SDS011;6995;52.618;13.488;2024-01-06T07:08:50;57.77;;;51.43;;
13849;SDS011;6995;52.618;13.488;2024-01-06T07:11:16;58.73;;;44.60;;
13849;SDS011;6995;52.618;13.488;2024-01-06T07:13:43;63.53;;;49.40;;
13849;SDS011;6995;52.618;13.488;2024-01-06T07:16:09;58.97;;;46.67;;
13849;SDS011;6995;52.618;13.488;2024-01-06T07:18:36;56.67;;;44.83;;
13849;SDS011;6995;52.618;13.488;2024-01-06T07:21:04;59.43;;;44.93;;
13849;SDS011;6995;52.618;13.488;2024-01-06T07:23:31;59.33;;;44.97;;
13849;SDS011;6995;52.618;13.488;2024-01-06T07:25:57;58.17;;;44.93;;
13849;SDS011;6995;52.618;13.488;2024-01-06T07:28:23;59.10;;;46.17;;
13849;SDS011;6995;52.618;13.488;2024-01-06T07:30:49;59.03;;;48.70;;
13849;SDS011;6995;52.618;13.488;2024-01-06T07:33:14;53.93;;;45.03;;
13849;SDS011;6995;52.618;13.488;2024-01-06T07:35:40;60.83;;;48.47;;
13849;SDS011;6995;52.618;13.488;2024-01-06T07:38:08;58.57;;;46.03;;
13849;SDS011;6995;52.618;13.488;2024-01-06T07:40:35;58.57;;;43.97;;
13849;SDS011;6995;52.618;13.488;2024-01-06T07:43:01;64.20;;;43.97;;
13849;SDS011;6995;52.618;13.488;2024-01-06T07:45:27;64.80;;;50.40;;
13849;SDS011;6995;52.618;13.488;2024-01-06T07:47:53;58.57;;;46.47;;
13849;SDS011;6995;52.618;13.488;2024-01-06T07:50:18;57.63;;;43.43;;
13849;SDS011;6995;52.618;13.488;2024-01-06T07:52:44;65.77;;;47.50;;
13849;SDS011;6995;52.618;13.488;2024-01-06T07:55:09;57.40;;;50.80;;
13849;SDS011;6995;52.618;13.488;2024-01-06T07:57:35;61.07;;;44.40;;
13849;SDS011;6995;52.618;13.488;2024-01-06T08:00:01;53.53;;;45.07;;
13849;SDS011;6995;52.618;13.488;2024-01-06T08:02:27;56.80;;;44.93;;
13849;SDS011;6995;52.618;13.488;2024-01-06T08:04:52;56.13;;;46.33;;
13849;SDS011;6995;52.618;13.488;2024-01-06T08:07:20;60.00;;;43.77;;
13849;SDS011;6995;52.618;13.488;2024-01-06T08:09:46;63.70;;;48.37;;
13849;SDS011;6995;52.618;13.488;2024-01-06T08:12:12;55.93;;;47.93;;
13849;SDS011;6995;52.618;13.488;2024-01-06T08:14:37;55.13;;;45.27;;
13849;SDS011;6995;52.618;13.488;2024-01-06T08:17:03;65.27;;;51.33;;
13849;SDS011;6995;52.618;13.488;2024-01-06T08:19:29;58.80;;;47.33;;
13849;SDS011;6995;52.618;13.488;2024-01-06T08:21:56;59.27;;;46.97;;
13849;SDS011;6995;52.618;13.488;2024-01-06T08:24:22;57.57;;;51.50;;
13849;SDS011;6995;52.618;13.488;2024-01-06T08:26:48;58.70;;;44.17;;
13849;SDS011;6995;52.618;13.488;2024-01-06T08:29:13;66.07;;;54.03;;
13849;SDS011;6995;52.618;13.488;2024-01-06T08:31:41;64.67;;;47.07;;
13849;SDS011;6995;52.618;13.488;2024-01-06T08:34:07;67.37;;;52.90;;
13849;SDS011;6995;52.618;13.488;2024-01-06T08:36:33;62.87;;;51.20;;
13849;SDS011;6995;52.618;13.488;2024-01-06T08:38:59;66.90;;;50.70;;
13849;SDS011;6995;52.618;13.488;2024-01-06T08:41:25;60.03;;;48.33;;
13849;SDS011;6995;52.618;13.488;2024-01-06T08:43:51;60.93;;;45.63;;
13849;SDS011;6995;52.618;13.488;2024-01-06T08:46:16;59.63;;;49.70;;
13849;SDS011;6995;52.618;13.488;2024-01-06T08:48:42;56.67;;;46.17;;
13849;SDS011;6995;52.618;13.488;2024-01-06T08:51:08;58.63;;;47.63;;
13849;SDS011;6995;52.618;13.488;2024-01-06T08:53:34;60.00;;;48.30;;
13849;SDS011;6995;52.618;13.488;2024-01-06T08:56:00;53.90;;;46.20;;
13849;SDS011;6995;52.618;13.488;2024-01-06T08:58:25;52.77;;;43.57;;
13849;SDS011;6995;52.618;13.488;2024-01-06T09:00:52;62.40;;;46.60;;
13849;SDS011;6995;52.618;13.488;2024-01-06T09:03:18;58.20;;;48.27;;
13849;SDS011;6995;52.618;13.488;2024-01-06T09:05:50;51.03;;;45.00;;
13849;SDS011;6995;52.618;13.488;2024-01-06T09:08:20;52.50;;;41.97;;
13849;SDS011;6995;52.618;13.488;2024-01-06T09:10:46;51.47;;;45.23;;
13849;SDS011;6995;52.618;13.488;2024-01-06T09:13:12;50.77;;;42.43;;
13849;SDS011;6995;52.618;13.488;2024-01-06T09:15:38;58.07;;;46.03;;
13849;SDS011;6995;52.618;13.488;2024-01-06T09:18:03;56.43;;;49.53;;
13849;SDS011;6995;52.618;13.488;2024-01-06T09:20:29;53.30;;;45.83;;
13849;SDS011;6995;52.618;13.488;2024-01-06T09:22:55;51.90;;;46.00;;
13849;SDS011;6995;52.618;13.488;2024-01-06T09:25:21;54.57;;;44.73;;
13849;SDS011;6995;52.618;13.488;2024-01-06T09:27:49;52.23;;;44.30;;
13849;SDS011;6995;52.618;13.488;2024-01-06T09:30:16;53.83;;;46.17;;
13849;SDS011;6995;52.618;13.488;2024-01-06T09:32:42;56.07;;;44.93;;
13849;SDS011;6995;52.618;13.488;2024-01-06T09:35:08;49.13;;;43.07;;
13849;SDS011;6995;52.618;13.488;2024-01-06T09:37:33;48.90;;;43.63;;
13849;SDS011;6995;52.618;13.488;2024-01-06T09:39:59;46.20;;;41.07;;
13849;SDS011;6995;52.618;13.488;2024-01-06T09:42:25;50.93;;;45.50;;
13849;SDS011;6995;52.618;13.488;2024-01-06T09:44:51;51.77;;;44.60;;
13849;SDS011;6995;52.618;13.488;2024-01-06T09:47:17;52.57;;;42.40;;
13849;SDS011;6995;52.618;13.488;2024-01-06T09:49:46;50.37;;;45.20;;
13849;SDS011;6995;52.618;13.488;2024-01-06T09:52:14;53.03;;;45.70;;
13849;SDS011;6995;52.618;13.488;2024-01-06T09:54:46;52.43;;;46.50;;
13849;SDS011;6995;52.618;13.488;2024-01-06T09:57:18;51.70;;;46.37;;
13849;SDS011;6995;52.618;13.488;2024-01-06T09:59:45;48.80;;;42.87;;
13849;SDS011;6995;52.618;13.488;2024-01-06T10:02:12;48.67;;;43.23;;
13849;SDS011;6995;52.618;13.488;2024-01-06T10:04:40;48.87;;;43.87;;
13849;SDS011;6995;52.618;13.488;2024-01-06T10:07:06;52.50;;;46.97;;
13849;SDS011;6995;52.618;13.488;2024-01-06T10:09:32;51.83;;;46.87;;
13849;SDS011;6995;52.618;13.488;2024-01-06T10:11:57;50.77;;;44.97;;
13849;SDS011;6995;52.618;13.488;2024-01-06T10:14:24;56.07;;;50.20;;
13849;SDS011;6995;52.618;13.488;2024-01-06T10:16:53;49.67;;;44.13;;
13849;SDS011;6995;52.618;13.488;2024-01-06T10:19:19;49.00;;;43.60;;
13849;SDS011;6995;52.618;13.488;2024-01-06T10:21:46;48.43;;;43.50;;
13849;SDS011;6995;52.618;13.488;2024-01-06T10:24:11;49.70;;;44.47;;
13849;SDS011;6995;52.618;13.488;2024-01-06T10:26:37;56.00;;;46.07;;
13849;SDS011;6995;52.618;13.488;2024-01-06T10:29:04;52.23;;;45.70;;
13849;SDS011;6995;52.618;13.488;2024-01-06T10:31:30;50.63;;;45.90;;
13849;SDS011;6995;52.618;13.488;2024-01-06T10:33:55;48.87;;;43.80;;
13849;SDS011;6995;52.618;13.488;2024-01-06T10:36:24;47.20;;;39.90;;
13849;SDS011;6995;52.618;13.488;2024-01-06T10:38:52;50.50;;;45.30;;
13849;SDS011;6995;52.618;13.488;2024-01-06T10:41:17;54.83;;;48.47;;
13849;SDS011;6995;52.618;13.488;2024-01-06T10:43:45;55.90;;;50.40;;
13849;SDS011;6995;52.618;13.488;2024-01-06T10:46:12;52.30;;;46.87;;
13849;SDS011;6995;52.618;13.488;2024-01-06T10:48:41;52.23;;;46.77;;
13849;SDS011;6995;52.618;13.488;2024-01-06T10:51:09;55.50;;;49.87;;
13849;SDS011;6995;52.618;13.488;2024-01-06T10:53:35;49.80;;;44.70;;
13849;SDS011;6995;52.618;13.488;2024-01-06T10:56:04;49.80;;;44.47;;
13849;SDS011;6995;52.618;13.488;2024-01-06T10:58:33;46.93;;;41.93;;
13849;SDS011;6995;52.618;13.488;2024-01-06T11:01:07;50.30;;;45.27;;
13849;SDS011;6995;52.618;13.488;2024-01-06T11:03:36;54.83;;;49.73;;
13849;SDS011;6995;52.618;13.488;2024-01-06T11:06:04;50.57;;;45.80;;
13849;SDS011;6995;52.618;13.488;2024-01-06T11:08:36;51.20;;;46.07;;
13849;SDS011;6995;52.618;13.488;2024-01-06T11:11:15;48.13;;;43.13;;
13849;SDS011;6995;52.618;13.488;2024-01-06T11:13:45;51.10;;;46.20;;
13849;SDS011;6995;52.618;13.488;2024-01-06T11:16:12;51.93;;;47.17;;
13849;SDS011;6995;52.618;13.488;2024-01-06T11:19:01;59.43;;;50.37;;
13849;SDS011;6995;52.618;13.488;2024-01-06T11:21:28;57.20;;;51.83;;
13849;SDS011;6995;52.618;13.488;2024-01-06T11:26:51;51.97;;;47.00;;
13849;SDS011;6995;52.618;13.488;2024-01-06T11:29:19;47.37;;;42.37;;
13849;SDS011;6995;52.618;13.488;2024-01-06T11:34:46;52.13;;;46.93;;
13849;SDS011;6995;52.618;13.488;2024-01-06T11:37:14;47.13;;;42.33;;
13849;SDS011;6995;52.618;13.488;2024-01-06T11:39:42;52.27;;;47.33;;
13849;SDS011;6995;52.618;13.488;2024-01-06T11:42:09;48.90;;;43.90;;
13849;SDS011;6995;52.618;13.488;2024-01-06T11:44:39;51.17;;;45.80;;
13849;SDS011;6995;52.618;13.488;2024-01-06T11:47:08;56.30;;;51.20;;
13849;SDS011;6995;52.618;13.488;2024-01-06T11:49:36;58.10;;;52.80;;
13849;SDS011;6995;52.618;13.488;2024-01-06T11:52:02;53.17;;;48.23;;
13849;SDS011;6995;52.618;13.488;2024-01-06T11:54:28;56.73;;;51.33;;
13849;SDS011;6995;52.618;13.488;2024-01-06T11:56:55;50.80;;;46.07;;
13849;SDS011;6995;52.618;13.488;2024-01-06T11:59:22;45.73;;;41.07;;
13849;SDS011;6995;52.618;13.488;2024-01-06T12:01:48;56.73;;;51.50;;
13849;SDS011;6995;52.618;13.488;2024-01-06T12:04:14;51.70;;;46.73;;
13849;SDS011;6995;52.618;13.488;2024-01-06T12:06:40;47.93;;;43.17;;
13849;SDS011;6995;52.618;13.488;2024-01-06T12:09:07;55.23;;;50.00;;
13849;SDS011;6995;52.618;13.488;2024-01-06T12:11:34;49.37;;;44.70;;
13849;SDS011;6995;52.618;13.488;2024-01-06T12:13:59;49.77;;;45.53;;
13849;SDS011;6995;52.618;13.488;2024-01-06T12:16:25;45.13;;;40.63;;
13849;SDS011;6995;52.618;13.488;2024-01-06T12:18:54;45.13;;;40.50;;
13849;SDS011;6995;52.618;13.488;2024-01-06T12:21:22;48.40;;;43.57;;
13849;SDS011;6995;52.618;13.488;2024-01-06T12:23:48;48.10;;;43.47;;
13849;SDS011;6995;52.618;13.488;2024-01-06T12:26:14;46.27;;;41.87;;
13849;SDS011;6995;52.618;13.488;2024-01-06T12:28:41;47.90;;;43.23;;
13849;SDS011;6995;52.618;13.488;2024-01-06T12:31:13;45.83;;;41.73;;
13849;SDS011;6995;52.618;13.488;2024-01-06T12:33:40;43.80;;;39.40;;
13849;SDS011;6995;52.618;13.488;2024-01-06T12:36:06;45.30;;;41.10;;
13849;SDS011;6995;52.618;13.488;2024-01-06T12:38:33;44.37;;;39.97;;
13849;SDS011;6995;52.618;13.488;2024-01-06T12:41:05;48.57;;;44.47;;
13849;SDS011;6995;52.618;13.488;2024-01-06T12:43:31;48.50;;;43.77;;
13849;SDS011;6995;52.618;13.488;2024-01-06T12:45:57;45.10;;;40.37;;
13849;SDS011;6995;52.618;13.488;2024-01-06T12:48:23;46.63;;;42.37;;
13849;SDS011;6995;52.618;13.488;2024-01-06T12:50:49;49.20;;;44.83;;
13849;SDS011;6995;52.618;13.488;2024-01-06T12:53:15;46.93;;;42.87;;
13849;SDS011;6995;52.618;13.488;2024-01-06T12:55:42;48.27;;;44.00;;
13849;SDS011;6995;52.618;13.488;2024-01-06T12:58:08;43.53;;;39.17;;
13849;SDS011;6995;52.618;13.488;2024-01-06T13:00:34;49.33;;;44.73;;
13849;SDS011;6995;52.618;13.488;2024-01-06T13:03:00;47.70;;;42.90;;
13849;SDS011;6995;52.618;13.488;2024-01-06T13:05:25;44.37;;;40.27;;
13849;SDS011;6995;52.618;13.488;2024-01-06T13:07:51;46.53;;;42.00;;
13849;SDS011;6995;52.618;13.488;2024-01-06T13:10:17;50.37;;;45.83;;
13849;SDS011;6995;52.618;13.488;2024-01-06T13:12:42;48.03;;;44.00;;
13849;SDS011;6995;52.618;13.488;2024-01-06T13:15:08;41.63;;;37.77;;
13849;SDS011;6995;52.618;13.488;2024-01-06T13:17:37;48.70;;;44.63;;
13849;SDS011;6995;52.618;13.488;2024-01-06T13:20:03;48.97;;;44.53;;
13849;SDS011;6995;52.618;13.488;2024-01-06T13:22:30;45.17;;;41.20;;
13849;SDS011;6995;52.618;13.488;2024-01-06T13:24:56;46.27;;;42.23;;
13849;SDS011;6995;52.618;13.488;2024-01-06T13:27:22;45.13;;;40.83;;
13849;SDS011;6995;52.618;13.488;2024-01-06T13:29:47;45.63;;;41.50;;
13849;SDS011;6995;52.618;13.488;2024-01-06T13:32:13;48.33;;;44.50;;
13849;SDS011;6995;52.618;13.488;2024-01-06T13:34:40;43.87;;;39.87;;
13849;SDS011;6995;52.618;13.488;2024-01-06T13:37:06;43.30;;;39.33;;
13849;SDS011;6995;52.618;13.488;2024-01-06T13:39:32;41.47;;;37.77;;
13849;SDS011;6995;52.618;13.488;2024-01-06T13:41:58;49.67;;;45.47;;
13849;SDS011;6995;52.618;13.488;2024-01-06T13:44:24;44.00;;;40.13;;
13849;SDS011;6995;52.618;13.488;2024-01-06T13:46:49;47.50;;;43.37;;
13849;SDS011;6995;52.618;13.488;2024-01-06T13:49:16;43.17;;;39.50;;
13849;SDS011;6995;52.618;13.488;2024-01-06T13:51:42;42.33;;;38.57;;
13849;SDS011;6995;52.618;13.488;2024-01-06T13:54:08;43.60;;;39.80;;
13849;SDS011;6995;52.618;13.488;2024-01-06T13:56:35;40.97;;;37.27;;
13849;SDS011;6995;52.618;13.488;2024-01-06T13:59:02;44.77;;;40.77;;
13849;SDS011;6995;52.618;13.488;2024-01-06T14:01:28;44.53;;;40.33;;
13849;SDS011;6995;52.618;13.488;2024-01-06T14:03:54;46.47;;;42.30;;
13849;SDS011;6995;52.618;13.488;2024-01-06T14:06:28;42.43;;;38.70;;
13849;SDS011;6995;52.618;13.488;2024-01-06T14:08:57;42.53;;;38.67;;
13849;SDS011;6995;52.618;13.488;2024-01-06T14:11:23;40.37;;;36.67;;
13849;SDS011;6995;52.618;13.488;2024-01-06T14:13:50;38.63;;;35.17;;
13849;SDS011;6995;52.618;13.488;2024-01-06T14:16:17;38.23;;;34.90;;
13849;SDS011;6995;52.618;13.488;2024-01-06T14:18:43;36.37;;;33.13;;
13849;SDS011;6995;52.618;13.488;2024-01-06T14:21:09;38.73;;;35.33;;